Time;durP1;ratioP1;P1;durP2;ratioP2;P2;SDS_P1;SDS_P2;PMS_P1;PMS_P2;Temp;Humidity;BMP_temperature;BMP_pressure;BME280_temperature;BME280_humidity;BME280_pressure;Samples;Min_cycle;Max_cycle;Signal;HPM_P1;HPM_P2
2024/02/12 00:00:43;;;;;;;5.67;5.27;;;8.90;99.90;;;;;;5066093;28;20202;-70
2024/02/12 00:03:09;;;;;;;6.37;4.93;;;8.80;99.90;;;;;;5065069;28;20236;-70
2024/02/12 00:05:36;;;;;;;7.50;5.50;;;8.80;99.90;;;;;;5063860;28;20767;-69
2024/02/12 00:08:07;;;;;;;5.70;5.20;;;8.70;99.90;;;;;;5057830;28;20198;-69
2024/02/12 00:10:39;;;;;;;6.93;5.67;;;8.70;99.90;;;;;;5056735;28;20202;-70
2024/02/12 00:13:05;;;;;;;8.40;5.67;;;8.70;99.90;;;;;;5067707;28;20665;-70
2024/02/12 00:15:30;;;;;;;6.60;5.77;;;8.60;99.90;;;;;;5064110;28;20246;-69
2024/02/12 00:17:57;;;;;;;6.90;6.23;;;8.70;99.90;;;;;;5053681;28;20183;-70
2024/02/12 00:20:22;;;;;;;6.87;6.17;;;8.70;99.90;;;;;;5061675;28;20314;-70
2024/02/12 00:22:49;;;;;;;7.43;5.87;;;8.70;99.90;;;;;;5053658;28;20186;-70
2024/02/12 00:25:16;;;;;;;7.20;6.33;;;8.70;99.90;;;;;;5053590;28;20189;-70
2024/02/12 00:27:42;;;;;;;7.33;6.63;;;8.70;99.90;;;;;;5060862;28;20217;-70
2024/02/12 00:30:09;;;;;;;8.93;6.80;;;8.70;99.90;;;;;;5053274;28;20576;-70
2024/02/12 00:32:38;;;;;;;7.93;7.13;;;8.70;99.90;;;;;;5074917;28;20521;-70
2024/02/12 00:35:05;;;;;;;7.93;6.73;;;8.70;99.90;;;;;;5059026;28;20212;-70
2024/02/12 00:37:36;;;;;;;7.97;7.13;;;8.80;99.90;;;;;;5064093;28;20190;-69
2024/02/12 00:40:08;;;;;;;9.37;6.63;;;8.80;99.90;;;;;;5057780;28;20217;-70
2024/02/12 00:42:36;;;;;;;10.53;7.57;;;8.80;99.90;;;;;;5055323;28;20191;-70
2024/02/12 00:45:03;;;;;;;7.50;6.70;;;8.80;99.90;;;;;;5055662;28;20179;-70
2024/02/12 00:47:29;;;;;;;7.97;7.27;;;8.80;99.90;;;;;;5037904;28;20221;-70
2024/02/12 00:49:54;;;;;;;9.10;7.23;;;8.80;99.90;;;;;;5059679;28;20597;-70
2024/02/12 00:52:23;;;;;;;8.90;7.53;;;8.90;99.90;;;;;;5068590;28;20183;-70
2024/02/12 00:54:56;;;;;;;8.63;7.73;;;8.90;99.90;;;;;;5072009;28;20223;-70
2024/02/12 00:57:22;;;;;;;8.40;7.60;;;8.90;99.90;;;;;;5073080;28;20182;-71
2024/02/12 00:59:48;;;;;;;8.83;7.07;;;8.90;99.90;;;;;;5072888;28;20617;-70
2024/02/12 01:02:14;;;;;;;8.40;7.60;;;8.80;99.90;;;;;;5068584;28;20182;-70
2024/02/12 01:04:40;;;;;;;9.87;8.23;;;8.80;99.90;;;;;;5077879;28;20250;-70
2024/02/12 01:07:05;;;;;;;9.03;8.03;;;8.80;99.90;;;;;;5071644;28;20210;-70
2024/02/12 01:09:31;;;;;;;13.47;9.50;;;8.80;99.90;;;;;;5072642;28;20197;-70
2024/02/12 01:11:58;;;;;;;10.67;9.43;;;8.80;99.90;;;;;;5072679;28;20205;-69
2024/02/12 01:14:23;;;;;;;11.57;10.10;;;8.80;99.90;;;;;;5081083;28;20186;-69
2024/02/12 01:16:50;;;;;;;11.77;9.60;;;8.80;99.90;;;;;;5072512;28;20291;-70
2024/02/12 01:19:16;;;;;;;11.30;10.10;;;8.80;99.90;;;;;;5068788;28;20257;-70
2024/02/12 01:21:42;;;;;;;12.00;10.00;;;8.80;99.90;;;;;;5080678;28;20198;-70
2024/02/12 01:24:07;;;;;;;13.33;10.30;;;8.80;99.90;;;;;;5072750;28;20182;-70
2024/02/12 01:26:36;;;;;;;13.90;11.03;;;8.80;99.90;;;;;;5063259;28;20247;-70
2024/02/12 01:29:03;;;;;;;16.13;10.57;;;8.80;99.90;;;;;;5075471;28;20181;-70
2024/02/12 01:31:29;;;;;;;12.73;10.13;;;8.80;99.90;;;;;;5068909;28;20197;-70
2024/02/12 01:33:54;;;;;;;14.27;10.70;;;8.80;99.90;;;;;;5065040;28;20263;-70
2024/02/12 01:36:21;;;;;;;13.90;11.67;;;8.80;99.90;;;;;;5071602;28;20178;-69
2024/02/12 01:38:46;;;;;;;17.07;13.23;;;8.70;99.90;;;;;;5072138;28;20197;-70
2024/02/12 01:41:12;;;;;;;14.87;11.67;;;8.70;99.90;;;;;;5070270;28;20218;-70
2024/02/12 01:43:41;;;;;;;17.47;12.13;;;8.70;99.90;;;;;;5070116;28;20189;-70
2024/02/12 01:46:07;;;;;;;16.00;12.97;;;8.70;99.90;;;;;;5067890;28;20259;-70
2024/02/12 01:48:38;;;;;;;17.23;12.63;;;8.70;99.90;;;;;;5072042;28;20244;-69
2024/02/12 01:51:09;;;;;;;18.60;13.93;;;8.70;99.90;;;;;;5071329;28;20201;-70
2024/02/12 01:53:38;;;;;;;19.57;14.43;;;8.70;99.90;;;;;;5071137;28;20178;-70
2024/02/12 01:56:08;;;;;;;20.77;14.00;;;8.70;99.90;;;;;;5072056;28;20273;-70
2024/02/12 01:58:40;;;;;;;16.83;12.30;;;8.60;99.90;;;;;;5071698;28;20182;-70
2024/02/12 02:01:07;;;;;;;21.33;15.30;;;8.60;99.90;;;;;;5067525;28;20279;-70
2024/02/12 02:03:33;;;;;;;20.63;13.63;;;8.70;99.90;;;;;;5062275;28;20239;-70
2024/02/12 02:06:01;;;;;;;20.03;15.10;;;8.70;99.90;;;;;;5062798;28;20258;-70
2024/02/12 02:08:36;;;;;;;19.90;13.80;;;8.70;99.90;;;;;;5067799;28;20578;-70
2024/02/12 02:11:11;;;;;;;20.47;15.43;;;8.70;99.90;;;;;;5067756;28;20200;-70
2024/02/12 02:13:42;;;;;;;22.17;15.47;;;8.70;99.90;;;;;;5064741;28;20186;-70
2024/02/12 02:16:08;;;;;;;18.67;14.73;;;8.70;99.90;;;;;;5065592;28;20218;-70
2024/02/12 02:18:34;;;;;;;25.63;16.53;;;8.70;99.90;;;;;;5068666;28;20224;-70
2024/02/12 02:21:00;;;;;;;25.53;15.87;;;8.70;99.90;;;;;;5068789;28;20194;-70
2024/02/12 02:23:28;;;;;;;25.07;15.60;;;8.70;99.90;;;;;;5074960;28;20185;-70
2024/02/12 02:25:55;;;;;;;19.93;15.23;;;8.70;99.90;;;;;;5068923;28;20174;-70
2024/02/12 02:28:24;;;;;;;25.83;16.83;;;8.70;99.90;;;;;;5068110;28;20209;-70
2024/02/12 02:30:52;;;;;;;23.53;17.60;;;8.70;99.90;;;;;;5064278;28;20571;-70
2024/02/12 02:33:18;;;;;;;25.40;16.47;;;8.80;99.90;;;;;;5070031;28;20578;-69
2024/02/12 02:35:44;;;;;;;20.67;16.47;;;8.80;99.90;;;;;;5071047;28;20609;-70
2024/02/12 02:38:15;;;;;;;22.70;16.77;;;8.80;99.90;;;;;;5070814;28;20671;-70
2024/02/12 02:40:45;;;;;;;23.00;17.53;;;8.70;99.90;;;;;;5068576;28;20214;-70
2024/02/12 02:43:11;;;;;;;25.00;17.90;;;8.80;99.90;;;;;;5070157;28;20186;-70
2024/02/12 02:45:38;;;;;;;28.90;18.33;;;8.80;99.90;;;;;;5068920;28;20178;-70
2024/02/12 02:48:04;;;;;;;26.70;18.60;;;8.80;99.90;;;;;;5070861;28;20224;-70
2024/02/12 02:50:31;;;;;;;26.50;18.53;;;8.80;99.90;;;;;;5061562;28;20294;-70
2024/02/12 02:52:58;;;;;;;29.67;19.00;;;8.80;99.90;;;;;;5062773;28;20182;-70
2024/02/12 02:55:24;;;;;;;29.23;19.57;;;8.80;99.90;;;;;;5055329;28;20268;-70
2024/02/12 02:57:54;;;;;;;28.43;19.43;;;8.80;99.90;;;;;;5062210;28;20182;-69
2024/02/12 03:00:20;;;;;;;28.40;19.57;;;8.80;99.90;;;;;;5065895;28;20247;-69
2024/02/12 03:02:46;;;;;;;29.60;19.70;;;8.70;99.90;;;;;;5068837;28;20272;-70
2024/02/12 03:05:12;;;;;;;26.97;20.33;;;8.70;99.90;;;;;;5063981;28;20265;-69
2024/02/12 03:07:43;;;;;;;29.87;19.97;;;8.70;99.90;;;;;;5064602;28;20198;-70
2024/02/12 03:10:10;;;;;;;26.90;19.60;;;8.70;99.90;;;;;;5064927;28;20195;-70
2024/02/12 03:12:36;;;;;;;42.43;21.50;;;8.70;99.90;;;;;;5067612;28;20580;-69
2024/02/12 03:15:02;;;;;;;33.70;21.53;;;8.60;99.90;;;;;;5068930;28;20178;-70
2024/02/12 03:17:27;;;;;;;32.30;21.07;;;8.60;99.90;;;;;;5069792;28;20276;-70
2024/02/12 03:19:53;;;;;;;34.73;20.30;;;8.60;99.90;;;;;;5068961;28;20658;-70
2024/02/12 03:22:18;;;;;;;29.03;20.27;;;8.60;99.90;;;;;;5062204;28;20181;-69
2024/02/12 03:24:44;;;;;;;30.63;20.90;;;8.60;99.90;;;;;;5063696;28;20182;-68
2024/02/12 03:27:10;;;;;;;34.47;22.27;;;8.50;99.90;;;;;;5070589;28;20277;-70
2024/02/12 03:29:36;;;;;;;35.13;21.40;;;8.50;99.90;;;;;;5078662;28;20184;-70
2024/02/12 03:32:01;;;;;;;32.03;22.60;;;8.50;99.90;;;;;;5061950;28;20181;-69
2024/02/12 03:34:29;;;;;;;40.33;21.70;;;8.60;99.90;;;;;;5071284;28;20220;-70
2024/02/12 03:36:56;;;;;;;37.00;23.63;;;8.50;99.90;;;;;;5074136;28;20539;-69
2024/02/12 03:39:24;;;;;;;37.13;23.37;;;8.60;99.90;;;;;;5072457;28;20170;-70
2024/02/12 03:41:51;;;;;;;38.23;23.40;;;8.60;99.90;;;;;;5072609;28;20205;-70
2024/02/12 03:44:17;;;;;;;33.13;22.53;;;8.60;99.90;;;;;;5080505;28;20177;-70
2024/02/12 03:46:46;;;;;;;33.40;22.13;;;8.60;99.90;;;;;;5076293;28;20176;-70
2024/02/12 04:00:16;;;;;;;31.43;21.53;;;8.70;99.90;;;;;;5067052;28;20212;-70
2024/02/12 04:02:45;;;;;;;34.27;22.80;;;8.60;99.90;;;;;;5073813;28;20173;-71
2024/02/12 04:05:11;;;;;;;30.70;21.77;;;8.70;99.90;;;;;;5073997;28;20257;-69
2024/02/12 04:07:38;;;;;;;38.70;23.80;;;8.70;99.90;;;;;;5065382;28;20214;-70
2024/02/12 04:10:07;;;;;;;34.03;22.17;;;8.70;99.90;;;;;;5073096;28;20230;-70
2024/02/12 04:12:33;;;;;;;34.43;23.17;;;8.70;99.90;;;;;;5073385;28;20236;-70
2024/02/12 04:15:00;;;;;;;29.70;21.10;;;8.70;99.90;;;;;;5063625;28;20897;-69
2024/02/12 04:17:28;;;;;;;34.87;21.20;;;8.70;99.90;;;;;;5073704;28;20543;-70
2024/02/12 04:19:54;;;;;;;29.57;21.97;;;8.60;99.90;;;;;;5073446;28;20761;-70
2024/02/12 04:22:20;;;;;;;33.80;21.30;;;8.60;99.90;;;;;;5072812;28;20186;-69
2024/02/12 04:24:47;;;;;;;29.60;21.17;;;8.60;99.90;;;;;;5072274;28;20280;-70
2024/02/12 04:27:13;;;;;;;31.30;20.70;;;8.60;99.90;;;;;;5072470;28;20205;-70
2024/02/12 04:29:40;;;;;;;31.03;20.50;;;8.60;99.90;;;;;;5072902;28;20184;-70
2024/02/12 04:32:12;;;;;;;30.40;20.33;;;8.60;99.90;;;;;;5068135;28;20178;-70
2024/02/12 04:34:39;;;;;;;29.30;19.23;;;8.60;99.90;;;;;;5073492;28;20166;-70
2024/02/12 04:37:11;;;;;;;32.33;20.57;;;8.60;99.90;;;;;;5073196;28;20194;-70
2024/02/12 04:39:37;;;;;;;28.97;18.67;;;8.60;99.90;;;;;;5072932;28;20186;-70
2024/02/12 04:42:04;;;;;;;29.20;19.47;;;8.60;99.90;;;;;;5064796;28;20227;-69
2024/02/12 04:44:30;;;;;;;31.00;18.90;;;8.60;99.90;;;;;;5071702;28;20227;-70
2024/02/12 04:46:58;;;;;;;23.43;18.70;;;8.70;99.90;;;;;;5072697;28;20264;-70
2024/02/12 04:49:25;;;;;;;27.23;18.57;;;8.60;99.90;;;;;;5071509;28;20183;-70
2024/02/12 04:51:51;;;;;;;27.97;18.17;;;8.60;99.90;;;;;;5065062;28;20336;-69
2024/02/12 04:54:16;;;;;;;27.97;19.27;;;8.60;99.90;;;;;;5073131;28;20203;-70
2024/02/12 04:56:42;;;;;;;30.23;20.63;;;8.60;99.90;;;;;;5071535;28;20177;-69
2024/02/12 04:59:12;;;;;;;26.63;19.20;;;8.60;99.90;;;;;;5077016;28;20261;-70
2024/02/12 05:01:41;;;;;;;33.43;19.67;;;8.50;99.90;;;;;;5072588;28;20202;-70
2024/02/12 05:04:07;;;;;;;29.60;19.50;;;8.50;99.90;;;;;;5072873;28;20662;-70
2024/02/12 05:06:33;;;;;;;32.07;19.47;;;8.50;99.90;;;;;;5071656;28;20188;-70
2024/02/12 05:09:06;;;;;;;32.10;20.57;;;8.50;99.90;;;;;;5071556;28;21044;-70
2024/02/12 05:11:32;;;;;;;31.10;20.57;;;8.50;99.90;;;;;;5072796;28;20713;-70
2024/02/12 05:13:57;;;;;;;29.87;19.17;;;8.50;99.90;;;;;;5068384;28;20174;-70
2024/02/12 05:16:30;;;;;;;33.43;19.33;;;8.50;99.90;;;;;;5066408;28;20209;-70
2024/02/12 05:24:29;;;;;;;30.93;19.47;;;8.40;99.90;;;;;;5063988;28;20190;-69
2024/02/12 05:26:56;;;;;;;38.30;20.03;;;8.40;99.90;;;;;;5079423;28;20178;-70
2024/02/12 05:29:22;;;;;;;32.60;20.03;;;8.40;99.90;;;;;;5066135;28;20177;-70
2024/02/12 05:31:48;;;;;;;30.27;20.63;;;8.40;99.90;;;;;;5071179;28;20194;-70
2024/02/12 05:34:13;;;;;;;31.60;19.00;;;8.50;99.90;;;;;;5072246;28;20708;-70
2024/02/12 05:36:41;;;;;;;33.93;20.10;;;8.50;99.90;;;;;;5071654;28;20178;-70
2024/02/12 05:39:09;;;;;;;27.97;19.03;;;8.50;99.90;;;;;;5072230;28;20186;-70
2024/02/12 05:41:36;;;;;;;32.97;20.07;;;8.50;99.90;;;;;;5173850;22;20302;-90
2024/02/12 05:44:01;;;;;;;27.77;19.47;;;8.50;99.90;;;;;;5044808;28;20189;-89
2024/02/12 05:46:27;;;;;;;37.43;21.30;;;8.50;99.90;;;;;;5057950;28;20248;-90
2024/02/12 05:48:54;;;;;;;33.33;19.97;;;8.50;99.90;;;;;;5066159;28;20206;-90
2024/02/12 05:51:19;;;;;;;34.47;20.10;;;8.30;99.90;;;;;;5054854;28;20186;-91
2024/02/12 05:53:46;;;;;;;31.63;19.97;;;8.20;99.90;;;;;;5061867;28;20174;-90
2024/02/12 05:56:11;;;;;;;31.70;20.33;;;8.20;99.90;;;;;;5096737;22;20228;-74
2024/02/12 05:58:37;;;;;;;33.60;20.73;;;8.10;99.90;;;;;;5093516;28;20676;-73
2024/02/12 06:01:04;;;;;;;31.57;19.97;;;8.10;99.90;;;;;;5093826;28;20208;-73
2024/02/12 06:03:30;;;;;;;30.00;19.63;;;8.10;99.90;;;;;;5094482;28;20653;-73
2024/02/12 06:05:58;;;;;;;36.77;19.73;;;8.10;99.90;;;;;;5091117;28;20538;-73
2024/02/12 06:08:23;;;;;;;34.73;21.40;;;8.00;99.90;;;;;;5082891;28;20204;-73
2024/02/12 06:10:49;;;;;;;34.53;21.50;;;8.00;99.90;;;;;;5089314;28;20189;-73
2024/02/12 06:13:14;;;;;;;36.00;22.13;;;8.00;99.90;;;;;;5092408;28;20177;-73
2024/02/12 06:15:40;;;;;;;36.30;22.00;;;8.10;99.90;;;;;;5089075;28;20189;-73
2024/02/12 06:18:06;;;;;;;37.30;20.80;;;8.10;99.90;;;;;;5093537;28;20200;-73
2024/02/12 06:20:33;;;;;;;37.47;20.80;;;8.10;99.90;;;;;;5092170;28;20276;-73
2024/02/12 06:22:58;;;;;;;37.67;21.23;;;8.10;99.90;;;;;;5091884;28;20294;-73
2024/02/12 06:25:24;;;;;;;35.00;22.37;;;8.00;99.90;;;;;;5086841;28;20186;-73
2024/02/12 06:27:50;;;;;;;41.70;21.97;;;8.00;99.90;;;;;;5091891;28;20193;-73
2024/02/12 06:30:16;;;;;;;38.73;21.20;;;8.00;99.90;;;;;;5088888;28;20235;-73
2024/02/12 06:32:41;;;;;;;35.33;22.83;;;8.00;99.90;;;;;;5088002;28;20181;-73
2024/02/12 06:35:07;;;;;;;40.23;22.80;;;8.00;99.90;;;;;;5090961;28;20224;-73
2024/02/12 06:37:34;;;;;;;36.87;21.43;;;7.90;99.90;;;;;;5091409;28;20722;-73
2024/02/12 06:39:59;;;;;;;36.77;21.17;;;7.80;99.90;;;;;;5090945;28;20569;-73
2024/02/12 06:42:25;;;;;;;38.23;21.60;;;7.80;99.90;;;;;;5084960;28;20173;-72
2024/02/12 06:44:50;;;;;;;40.23;22.10;;;7.80;99.90;;;;;;5090783;28;20779;-73
2024/02/12 06:47:16;;;;;;;36.47;21.73;;;7.80;99.90;;;;;;5086993;28;20189;-73
2024/02/12 06:49:45;;;;;;;38.30;21.23;;;7.80;99.90;;;;;;5087880;28;20238;-73
2024/02/12 06:52:10;;;;;;;37.50;21.07;;;7.80;99.90;;;;;;5075023;28;20277;-73
2024/02/12 06:54:36;;;;;;;31.37;21.73;;;7.80;99.90;;;;;;5091165;28;20224;-72
2024/02/12 06:57:02;;;;;;;42.27;22.07;;;7.80;99.90;;;;;;5082400;28;20182;-73
2024/02/12 06:59:27;;;;;;;43.40;21.70;;;7.80;99.90;;;;;;5068051;28;20178;-73
2024/02/12 07:01:53;;;;;;;37.20;20.00;;;7.80;99.90;;;;;;5088491;28;20227;-73
2024/02/12 07:04:19;;;;;;;44.33;23.03;;;7.80;99.90;;;;;;5082902;28;20178;-73
2024/02/12 07:06:44;;;;;;;35.60;22.53;;;7.80;99.90;;;;;;5091568;28;20227;-73
2024/02/12 07:09:10;;;;;;;36.27;21.63;;;7.90;99.90;;;;;;5086289;28;20220;-72
2024/02/12 07:11:37;;;;;;;32.13;21.47;;;7.90;99.90;;;;;;5084706;28;20211;-73
2024/02/12 07:14:03;;;;;;;37.20;21.33;;;8.00;99.90;;;;;;5091090;28;20540;-73
2024/02/12 07:16:30;;;;;;;41.93;22.63;;;8.00;99.90;;;;;;5087432;28;20230;-73
2024/02/12 07:18:59;;;;;;;34.70;21.70;;;8.00;99.90;;;;;;5088585;28;20205;-73
2024/02/12 07:21:25;;;;;;;37.47;21.93;;;8.10;99.90;;;;;;5090371;28;20202;-73
2024/02/12 07:23:51;;;;;;;36.50;21.90;;;8.10;99.90;;;;;;5090622;28;20248;-73
2024/02/12 07:26:18;;;;;;;38.20;20.57;;;8.10;99.90;;;;;;5085905;28;20220;-73
2024/02/12 07:28:43;;;;;;;37.30;21.40;;;8.20;99.90;;;;;;5083241;28;20606;-72
2024/02/12 07:31:09;;;;;;;39.70;22.13;;;8.10;99.90;;;;;;5084929;28;20236;-73
2024/02/12 07:33:35;;;;;;;32.57;21.00;;;8.10;99.90;;;;;;5084058;28;20609;-73
2024/02/12 07:36:04;;;;;;;37.07;21.60;;;8.20;99.90;;;;;;5085133;28;20272;-73
2024/02/12 07:38:30;;;;;;;34.17;20.03;;;8.20;99.90;;;;;;5086920;28;20216;-73
2024/02/12 07:40:56;;;;;;;27.87;20.27;;;8.30;99.90;;;;;;5088517;28;20665;-73
2024/02/12 07:43:24;;;;;;;36.00;20.57;;;8.30;99.90;;;;;;5090697;28;20185;-73
2024/02/12 07:45:50;;;;;;;33.37;21.13;;;8.30;99.90;;;;;;5087629;28;20189;-73
2024/02/12 07:48:16;;;;;;;32.13;20.50;;;8.30;99.90;;;;;;5085662;28;20361;-73
2024/02/12 07:50:41;;;;;;;34.40;21.00;;;8.40;99.90;;;;;;5089453;28;20208;-73
2024/02/12 07:53:07;;;;;;;40.67;24.47;;;8.40;99.90;;;;;;5089910;28;20184;-73
2024/02/12 07:55:32;;;;;;;40.30;20.57;;;8.40;99.90;;;;;;5089906;28;20217;-73
2024/02/12 07:57:58;;;;;;;41.70;25.03;;;8.40;99.90;;;;;;5088448;28;20285;-73
2024/02/12 08:00:25;;;;;;;33.07;21.73;;;8.40;99.90;;;;;;5089164;28;20260;-73
2024/02/12 08:02:50;;;;;;;31.27;19.30;;;8.40;99.90;;;;;;5069047;28;20491;-72
2024/02/12 08:05:16;;;;;;;29.33;18.57;;;8.50;99.90;;;;;;5084955;28;20190;-72
2024/02/12 08:07:43;;;;;;;35.73;21.57;;;8.50;99.90;;;;;;5085070;28;20291;-73
2024/02/12 08:10:09;;;;;;;31.37;19.47;;;8.50;99.90;;;;;;5088073;28;20201;-73
2024/02/12 08:12:35;;;;;;;27.43;18.07;;;8.60;99.90;;;;;;5084384;28;20205;-73
2024/02/12 08:15:01;;;;;;;28.57;19.03;;;8.70;99.90;;;;;;5090279;28;20201;-72
2024/02/12 08:17:28;;;;;;;27.93;18.03;;;8.70;99.90;;;;;;5089350;28;20225;-72
2024/02/12 08:19:54;;;;;;;36.20;20.87;;;8.70;99.90;;;;;;5090095;28;20178;-72
2024/02/12 08:22:22;;;;;;;32.20;20.90;;;8.70;99.90;;;;;;5092763;28;20185;-73
2024/02/12 08:24:51;;;;;;;30.07;18.37;;;8.70;99.90;;;;;;5086134;28;20198;-73
2024/02/12 08:27:18;;;;;;;34.07;22.97;;;8.70;99.90;;;;;;5093044;28;20201;-74
2024/02/12 08:29:44;;;;;;;28.70;19.80;;;8.80;99.90;;;;;;5085527;28;20646;-73
2024/02/12 08:32:11;;;;;;;28.47;18.47;;;8.90;99.90;;;;;;5093596;28;20242;-73
2024/02/12 08:34:40;;;;;;;30.80;17.03;;;8.90;99.90;;;;;;5085384;28;20200;-73
2024/02/12 08:37:09;;;;;;;27.53;16.93;;;9.00;99.90;;;;;;5093887;28;20185;-73
2024/02/12 08:39:36;;;;;;;27.43;16.80;;;9.20;99.90;;;;;;5079792;28;20546;-73
2024/02/12 08:42:03;;;;;;;24.20;15.70;;;9.30;99.90;;;;;;5088032;28;20280;-73
2024/02/12 08:44:31;;;;;;;23.93;16.00;;;9.50;99.90;;;;;;5092343;28;20174;-74
2024/02/12 08:46:59;;;;;;;17.47;13.47;;;9.60;99.90;;;;;;5091972;28;20178;-74
2024/02/12 08:49:25;;;;;;;21.63;14.87;;;9.70;99.90;;;;;;5093237;28;20180;-73
2024/02/12 08:51:51;;;;;;;18.90;13.33;;;9.80;99.90;;;;;;5093572;28;20202;-73
2024/02/12 08:54:17;;;;;;;19.67;12.10;;;9.90;99.90;;;;;;5084936;28;20193;-74
2024/02/12 08:56:42;;;;;;;17.30;10.70;;;9.90;99.90;;;;;;5091322;28;20188;-73
2024/02/12 08:59:08;;;;;;;14.83;9.67;;;9.80;99.90;;;;;;5087557;28;20186;-74
2024/02/12 09:01:36;;;;;;;15.17;10.70;;;9.80;99.90;;;;;;5087363;28;20210;-73
2024/02/12 09:04:01;;;;;;;13.97;10.77;;;9.70;99.90;;;;;;5093003;28;20254;-73
2024/02/12 09:06:27;;;;;;;12.40;9.70;;;9.70;99.90;;;;;;5093396;28;20213;-74
2024/02/12 09:08:52;;;;;;;14.97;9.77;;;9.70;99.90;;;;;;5088774;28;20212;-73
2024/02/12 09:11:19;;;;;;;12.13;9.10;;;9.80;99.90;;;;;;5087952;28;20208;-73
2024/02/12 09:13:51;;;;;;;16.27;10.63;;;9.80;99.90;;;;;;5084967;28;20232;-74
2024/02/12 09:16:17;;;;;;;16.63;9.90;;;9.70;99.90;;;;;;5073494;28;20202;-73
2024/02/12 09:18:44;;;;;;;13.70;10.30;;;9.60;99.90;;;;;;5080405;28;20226;-74
2024/02/12 09:21:12;;;;;;;19.87;10.50;;;9.50;99.90;;;;;;5076910;28;20232;-74
2024/02/12 09:23:37;;;;;;;19.97;9.50;;;9.50;99.90;;;;;;5088586;28;20527;-74
2024/02/12 09:26:05;;;;;;;10.37;8.53;;;9.40;99.90;;;;;;5085189;28;20198;-73
2024/02/12 09:28:32;;;;;;;10.93;9.63;;;9.40;99.90;;;;;;5080600;28;20598;-74
2024/02/12 09:31:00;;;;;;;17.97;9.83;;;9.50;99.90;;;;;;5085338;28;20202;-73
2024/02/12 09:33:27;;;;;;;10.67;9.10;;;9.50;99.90;;;;;;5081027;28;20192;-73
2024/02/12 09:35:53;;;;;;;14.87;10.00;;;9.50;99.90;;;;;;5074328;28;20178;-73
2024/02/12 09:38:19;;;;;;;14.33;10.50;;;9.60;99.90;;;;;;5092213;28;20242;-73
2024/02/12 09:40:45;;;;;;;13.43;9.87;;;9.60;99.90;;;;;;5084148;28;20197;-73
2024/02/12 09:43:13;;;;;;;11.77;9.10;;;9.70;99.90;;;;;;5073372;28;20206;-74
2024/02/12 09:45:45;;;;;;;15.17;8.63;;;9.80;99.90;;;;;;5074903;28;20495;-73
2024/02/12 09:48:14;;;;;;;14.50;8.47;;;9.90;99.90;;;;;;5077416;28;20212;-73
2024/02/12 09:50:46;;;;;;;15.97;9.00;;;9.80;99.90;;;;;;5083325;28;20262;-73
2024/02/12 09:53:15;;;;;;;14.00;9.27;;;9.80;99.90;;;;;;5076646;28;20271;-73
2024/02/12 09:55:45;;;;;;;10.53;9.27;;;9.70;99.90;;;;;;5086571;28;20250;-73
2024/02/12 09:58:11;;;;;;;10.20;8.10;;;9.70;99.90;;;;;;5071077;28;20188;-73
2024/02/12 10:00:37;;;;;;;13.70;9.13;;;9.70;99.90;;;;;;5077307;28;20251;-73
2024/02/12 10:03:03;;;;;;;12.80;9.47;;;9.70;99.90;;;;;;5084549;28;20178;-73
2024/02/12 10:05:30;;;;;;;11.93;8.00;;;9.70;99.90;;;;;;5076799;28;20649;-73
2024/02/12 10:07:57;;;;;;;13.97;9.33;;;9.60;99.90;;;;;;5077742;28;20594;-72
2024/02/12 10:10:24;;;;;;;12.33;9.37;;;9.60;99.90;;;;;;5093159;28;20225;-73
2024/02/12 10:12:53;;;;;;;14.20;8.50;;;9.70;99.90;;;;;;5090319;28;20403;-73
2024/02/12 10:15:20;;;;;;;8.50;6.97;;;9.70;99.90;;;;;;5090119;28;20219;-73
2024/02/12 10:17:47;;;;;;;14.07;7.40;;;9.70;99.90;;;;;;5088517;28;20616;-73
2024/02/12 10:20:13;;;;;;;7.00;6.10;;;9.80;99.90;;;;;;5087388;28;20296;-73
2024/02/12 10:22:40;;;;;;;11.00;7.40;;;9.90;99.90;;;;;;5088610;28;20273;-74
2024/02/12 10:25:07;;;;;;;9.77;7.20;;;10.00;99.90;;;;;;5089389;28;20249;-74
2024/02/12 10:27:33;;;;;;;11.50;8.10;;;10.00;99.90;;;;;;5081846;28;20198;-73
2024/02/12 10:30:01;;;;;;;14.60;6.70;;;10.10;99.90;;;;;;5086856;28;20192;-72
2024/02/12 10:32:27;;;;;;;7.77;6.30;;;10.10;99.90;;;;;;5076176;28;20173;-74
2024/02/12 10:34:57;;;;;;;8.37;6.07;;;10.20;99.90;;;;;;5087443;28;20181;-73
2024/02/12 10:37:26;;;;;;;6.77;5.97;;;10.30;99.90;;;;;;5082627;28;20234;-73
2024/02/12 10:39:53;;;;;;;11.27;6.20;;;10.20;99.90;;;;;;5084845;28;20182;-74
2024/02/12 10:42:35;;;;;;;10.67;5.60;;;10.30;99.90;;;;;;5086426;28;20209;-74
2024/02/12 10:45:06;;;;;;;6.67;6.03;;;10.30;99.90;;;;;;5086196;28;20547;-73
2024/02/12 10:47:36;;;;;;;8.07;5.87;;;10.20;99.90;;;;;;5090650;28;20244;-73
2024/02/12 10:50:03;;;;;;;8.73;6.03;;;10.20;99.90;;;;;;5084330;28;20197;-73
2024/02/12 10:52:30;;;;;;;8.00;5.43;;;10.20;99.90;;;;;;5087776;28;20177;-73
2024/02/12 10:54:57;;;;;;;9.83;5.43;;;10.30;99.90;;;;;;5086315;28;20242;-73
2024/02/12 10:57:23;;;;;;;10.17;6.10;;;10.50;99.90;;;;;;5091022;28;20276;-73
2024/02/12 11:00:06;;;;;;;6.67;5.83;;;10.60;99.90;;;;;;5090435;28;20185;-73
2024/02/12 11:02:45;;;;;;;10.53;5.43;;;10.80;99.90;;;;;;5090420;28;20652;-73
2024/02/12 11:05:14;;;;;;;8.17;5.80;;;10.90;99.90;;;;;;5068125;28;20209;-74
2024/02/12 11:07:41;;;;;;;8.73;5.50;;;11.00;99.90;;;;;;5076656;28;20209;-72
2024/02/12 11:10:06;;;;;;;6.77;5.57;;;11.20;99.90;;;;;;5085176;28;20198;-73
2024/02/12 11:12:33;;;;;;;6.87;5.70;;;11.10;99.90;;;;;;5085703;28;20176;-72
2024/02/12 11:15:10;;;;;;;7.50;5.63;;;10.90;99.90;;;;;;5091084;28;20271;-73
2024/02/12 11:17:36;;;;;;;5.80;5.30;;;10.90;99.90;;;;;;5090969;28;20256;-73
2024/02/12 11:20:05;;;;;;;6.13;5.53;;;10.90;99.90;;;;;;5086993;28;20224;-72
2024/02/12 11:22:32;;;;;;;8.03;5.03;;;11.00;99.90;;;;;;5090800;28;20177;-73
2024/02/12 11:25:01;;;;;;;6.50;4.63;;;11.10;99.90;;;;;;5082943;28;20182;-73
2024/02/12 11:27:50;;;;;;;5.10;4.70;;;11.30;99.90;;;;;;5077686;28;20236;-72
2024/02/12 11:30:16;;;;;;;5.67;4.03;;;11.40;99.90;;;;;;5087573;28;20200;-72
2024/02/12 11:32:44;;;;;;;5.80;4.30;;;11.30;99.90;;;;;;5088915;28;20344;-72
2024/02/12 11:35:18;;;;;;;6.70;4.67;;;11.20;99.90;;;;;;5090860;28;20166;-71
2024/02/12 11:37:47;;;;;;;9.07;5.27;;;11.10;99.90;;;;;;5090711;28;20280;-73
2024/02/12 11:40:18;;;;;;;4.33;3.80;;;11.00;99.90;;;;;;5091292;28;20586;-73
2024/02/12 11:42:51;;;;;;;6.07;4.77;;;11.10;99.90;;;;;;5090187;28;20309;-73
2024/02/12 11:45:20;;;;;;;5.70;4.20;;;11.10;99.90;;;;;;5091915;28;20247;-72
2024/02/12 11:47:46;;;;;;;6.00;3.80;;;11.20;99.90;;;;;;5094750;28;20205;-73
2024/02/12 11:50:22;;;;;;;7.53;4.23;;;11.60;99.90;;;;;;5077610;28;20205;-72
2024/02/12 11:52:49;;;;;;;5.87;3.73;;;11.70;99.90;;;;;;5082932;28;20176;-72
2024/02/12 11:55:15;;;;;;;3.50;3.30;;;12.20;99.90;;;;;;5077680;28;20277;-72
2024/02/12 11:57:40;;;;;;;4.30;3.20;;;12.40;99.90;;;;;;5092132;28;20745;-72
2024/02/12 12:00:16;;;;;;;4.63;3.60;;;12.20;99.90;;;;;;5086621;28;20208;-72
2024/02/12 12:02:50;;;;;;;9.10;4.33;;;11.80;99.90;;;;;;5086148;28;20641;-72
2024/02/12 12:05:20;;;;;;;6.60;4.00;;;11.40;99.90;;;;;;5094807;28;20619;-72
2024/02/12 12:07:46;;;;;;;8.30;4.57;;;11.00;99.90;;;;;;5094960;28;20201;-71
2024/02/12 12:10:25;;;;;;;10.50;4.93;;;10.70;99.90;;;;;;5093378;28;20714;-71
2024/02/12 12:12:51;;;;;;;8.30;5.33;;;10.50;99.90;;;;;;5090415;28;20210;-72
2024/02/12 12:15:17;;;;;;;7.43;4.50;;;10.50;99.90;;;;;;5092610;28;20177;-72
2024/02/12 12:17:44;;;;;;;6.47;3.97;;;10.50;99.90;;;;;;5094372;28;20264;-72
2024/02/12 12:20:12;;;;;;;8.17;4.60;;;10.70;99.90;;;;;;5088115;28;20201;-72
2024/02/12 12:22:42;;;;;;;5.50;3.97;;;11.00;99.90;;;;;;5094457;28;20638;-72
2024/02/12 12:25:21;;;;;;;6.43;4.17;;;11.20;99.90;;;;;;5094122;28;20184;-72
2024/02/12 12:27:50;;;;;;;5.70;4.07;;;11.30;99.90;;;;;;5093503;28;20244;-73
2024/02/12 12:30:19;;;;;;;8.43;3.80;;;11.40;99.90;;;;;;5093881;28;20197;-72
2024/02/12 12:32:49;;;;;;;4.73;3.50;;;11.50;99.90;;;;;;5089815;28;20560;-73
2024/02/12 12:35:16;;;;;;;5.90;3.67;;;11.70;99.90;;;;;;5075321;28;20189;-73
2024/02/12 12:37:42;;;;;;;6.57;4.40;;;11.70;99.90;;;;;;5092907;28;20181;-72
2024/02/12 12:40:11;;;;;;;9.00;4.27;;;11.70;99.90;;;;;;5091779;28;20704;-71
2024/02/12 12:42:39;;;;;;;4.10;3.70;;;11.90;99.90;;;;;;5075729;28;20180;-71
2024/02/12 12:45:07;;;;;;;4.07;3.53;;;11.90;99.90;;;;;;5090580;28;20181;-72
2024/02/12 12:47:39;;;;;;;6.93;3.73;;;11.90;99.90;;;;;;5092383;28;20229;-72
2024/02/12 12:50:08;;;;;;;4.97;3.30;;;11.90;99.90;;;;;;5092106;28;20194;-72
2024/02/12 12:52:34;;;;;;;6.20;3.50;;;11.90;99.90;;;;;;5091311;28;20256;-72
2024/02/12 12:55:01;;;;;;;5.83;3.50;;;11.80;99.90;;;;;;5087346;28;20195;-73
2024/02/12 12:57:26;;;;;;;5.60;3.40;;;11.80;99.90;;;;;;5086306;28;20220;-72